KAFW/AFW METAR and TAF weather

Enter ICAO airport designator
Station Type Date Time Source
KAFW METAR 2018/04/26 14:53 UTC NOAA

KAFW 261453Z 30005KT 10SM FEW250 15/09 A3005 RMK AO2 SLP176 T01560089 50006 $


Station Type Date Time Source
KAFW Decoded METAR 2018/04/26 14:53 UTC NOAA

FORT WORTH ALLIANCE AIRPORT, TX, United States (KAFW) 32-59N 097-19W 233M
Apr 26, 2018 - 10:53 AM EDT / 2018.04.26 1453 UTC
Wind: from the WNW (300 degrees) at 6 MPH (5 KT):0
Visibility: 10 mile(s):0
Sky conditions: mostly clear
Temperature: 60.1 F (15.6 C)
Dew Point: 48.0 F (8.9 C)
Relative Humidity: 64%
Pressure (altimeter): 30.05 in. Hg (1017 hPa)
Pressure tendency: 0.02 inches (0.6 hPa) higher than three hours ago
ob: KAFW 261453Z 30005KT 10SM FEW250 15/09 A3005 RMK AO2 SLP176 T01560089 50006
cycle: 15

Station Type Date Time Source
KAFW TAF 2018/04/26 15:58 UTC NOAA

TAF
AMD KAFW 261455Z 2615/2712 34008KT P6SM FEW250
FM261800 35008KT P6SM SCT100
FM270600 36007KT P6SM VCSH BKN100


Example: see airport list